UCT Elwood — V7HW9 — position and weather

sailwx.info

Track history (hours):
 
Tides and Currents Weather Stations Pressure Air Temp Water Temp Dewpoint Dewpoint Depression Visibility Wind Speed Wind Dir Waves Ship Positions

UCT Elwood

Last reported at 2016-Aug-25 03:34 UTC. Time now 2016-Aug-25 04:33 UTC.
Position S 19°46' E 056°57'.

Type: Ship (hazmat cat B). MMSI: 538002324.

Date/timePositionNaut miles runAvg speedWind from/ knotsBaromVisibWave heightAir tempDewpointWater temp
2016-Aug-25 03:34S 19°46' E 056°57'2 1.6
2016-Aug-25 02:34S 19°46' E 056°59'1 1.5
2016-Aug-25 01:33S 19°45' E 057°01'1 1.4
2016-Aug-25 00:33S 19°44' E 057°02'1 1.4
2016-Aug-24 23:33S 19°43' E 057°03'2 1.6
2016-Aug-24 22:33S 19°42' E 057°04'2 1.9
2016-Aug-24 21:34S 19°41' E 057°05'2 2.0
2016-Aug-24 20:34S 19°40' E 057°07'2 2.1
2016-Aug-24 19:33S 19°40' E 057°10'2 2.1
2016-Aug-24 18:33S 19°40' E 057°12'2 1.9
2016-Aug-24 17:33S 19°39' E 057°14'2 1.9
2016-Aug-24 16:33S 19°39' E 057°16'2 1.9
2016-Aug-24 15:33S 19°38' E 057°18'2 1.7
2016-Aug-24 14:34S 19°38' E 057°19'2 1.9
2016-Aug-24 13:33S 19°37' E 057°21'2 2.3
2016-Aug-24 12:33S 19°37' E 057°24'2 2.2
2016-Aug-24 11:33S 19°37' E 057°26'2 2.0
2016-Aug-24 10:34S 19°36' E 057°28'2 2.0
2016-Aug-24 09:34S 19°36' E 057°30'2 2.2
2016-Aug-24 08:34S 19°36' E 057°33'2 2.0
2016-Aug-24 07:34S 19°36' E 057°35'2 1.9
2016-Aug-24 06:34S 19°34' E 057°36'11 5.5
2016-Aug-24 04:33S 19°24' E 057°32'2 2.2
2016-Aug-24 03:33S 19°25' E 057°34'2 2.2
2016-Aug-24 02:33S 19°25' E 057°36'2 1.9
2016-Aug-24 01:33S 19°26' E 057°38'2 2.1
2016-Aug-24 00:33S 19°26' E 057°40'2 2.3
2016-Aug-23 23:34S 19°26' E 057°43'2 1.8
2016-Aug-23 22:33S 19°25' E 057°45'  
Track history (hours):
 
Tides and Currents Weather Stations Pressure Air Temp Water Temp Dewpoint Dewpoint Depression Visibility Wind Speed Wind Dir Waves Ship Positions

UCT Elwood

Last reported at 2016-Aug-25 03:34 UTC. Time now 2016-Aug-25 04:33 UTC.
Position S 19°46' E 056°57'.

Type: Ship (hazmat cat B). MMSI: 538002324.

Date/timePositionNaut miles runAvg speedWind from/ knotsBaromVisibWave heightAir tempDewpointWater temp
2016-Aug-25 03:34S 19°46' E 056°57'2 1.6
2016-Aug-25 02:34S 19°46' E 056°59'1 1.5
2016-Aug-25 01:33S 19°45' E 057°01'1 1.4
2016-Aug-25 00:33S 19°44' E 057°02'1 1.4
2016-Aug-24 23:33S 19°43' E 057°03'2 1.6
2016-Aug-24 22:33S 19°42' E 057°04'2 1.9
2016-Aug-24 21:34S 19°41' E 057°05'2 2.0
2016-Aug-24 20:34S 19°40' E 057°07'2 2.1
2016-Aug-24 19:33S 19°40' E 057°10'2 2.1
2016-Aug-24 18:33S 19°40' E 057°12'2 1.9
2016-Aug-24 17:33S 19°39' E 057°14'2 1.9
2016-Aug-24 16:33S 19°39' E 057°16'2 1.9
2016-Aug-24 15:33S 19°38' E 057°18'2 1.7
2016-Aug-24 14:34S 19°38' E 057°19'2 1.9
2016-Aug-24 13:33S 19°37' E 057°21'2 2.3
2016-Aug-24 12:33S 19°37' E 057°24'2 2.2
2016-Aug-24 11:33S 19°37' E 057°26'2 2.0
2016-Aug-24 10:34S 19°36' E 057°28'2 2.0
2016-Aug-24 09:34S 19°36' E 057°30'2 2.2
2016-Aug-24 08:34S 19°36' E 057°33'2 2.0
2016-Aug-24 07:34S 19°36' E 057°35'2 1.9
2016-Aug-24 06:34S 19°34' E 057°36'11 5.5
2016-Aug-24 04:33S 19°24' E 057°32'2 2.2
2016-Aug-24 03:33S 19°25' E 057°34'2 2.2
2016-Aug-24 02:33S 19°25' E 057°36'2 1.9
2016-Aug-24 01:33S 19°26' E 057°38'2 2.1
2016-Aug-24 00:33S 19°26' E 057°40'2 2.3
2016-Aug-23 23:34S 19°26' E 057°43'2 1.8
2016-Aug-23 22:33S 19°25' E 057°45'  

Dump ship's entire track history